createdAt,value
2022-12-18T00:02:23.177Z,96621.08
2022-12-18T00:05:11.395Z,96621.45
2022-12-18T00:10:48.083Z,96630.88
2022-12-18T00:16:26.721Z,96639.11
2022-12-18T00:19:16.068Z,96648.36
2022-12-18T00:24:51.808Z,96643.07
2022-12-18T00:30:25.099Z,96662.72
2022-12-18T00:36:04.268Z,96658.63
2022-12-18T00:45:14.371Z,96642.11
2022-12-18T00:48:02.746Z,96648.41
2022-12-18T00:53:41.862Z,96644.61
2022-12-18T01:05:07.811Z,96657.09
2022-12-18T01:10:44.495Z,96658.51
2022-12-18T01:16:24.631Z,96670.08
2022-12-18T01:21:54.859Z,96668.37
2022-12-18T01:24:44.001Z,96675.66
2022-12-18T01:27:37.029Z,96671.98
2022-12-18T01:33:15.660Z,96681.84
2022-12-18T01:38:54.881Z,96690.47
2022-12-18T01:42:01.827Z,96695.32
2022-12-18T01:44:57.546Z,96682.59
2022-12-18T01:50:37.928Z,96690.84
2022-12-18T01:53:27.824Z,96693.05
2022-12-18T02:01:49.778Z,96701.75
2022-12-18T02:07:29.798Z,96709.25
2022-12-18T02:10:21.735Z,96703.92
2022-12-18T02:16:04.838Z,96712.91
2022-12-18T02:21:40.161Z,96706.53
2022-12-18T02:27:15.720Z,96696.83
2022-12-18T02:32:57.597Z,96711.70
2022-12-18T02:38:29.711Z,96703.33
2022-12-18T02:41:19.417Z,96711.20
2022-12-18T02:46:57.516Z,96703.87
2022-12-18T02:49:49.540Z,96701.67
2022-12-18T02:55:36.694Z,96702.45
2022-12-18T03:01:14.270Z,96718.45
2022-12-18T03:06:55.679Z,96713.19
2022-12-18T03:12:34.773Z,96724.11
2022-12-18T03:18:17.246Z,96717.11
2022-12-18T03:23:49.660Z,96728.72
2022-12-18T03:26:38.842Z,96737.02
2022-12-18T03:32:18.168Z,96733.77
2022-12-18T03:35:09.239Z,96731.50
2022-12-18T03:37:58.094Z,96736.08
2022-12-18T03:40:57.046Z,96743.72
2022-12-18T03:46:33.211Z,96740.95
2022-12-18T03:52:11.802Z,96748.83
2022-12-18T03:55:08.096Z,96748.35
2022-12-18T03:57:57.110Z,96757.03
2022-12-18T04:00:45.846Z,96761.03
2022-12-18T04:03:36.506Z,96760.64
2022-12-18T04:09:06.371Z,96773.89
2022-12-18T04:14:41.875Z,96762.54
2022-12-18T04:20:18.841Z,96761.13
2022-12-18T04:25:49.434Z,96769.59
2022-12-18T04:29:05.673Z,96769.11
2022-12-18T04:45:56.906Z,96795.56
2022-12-18T05:25:42.497Z,96784.54
2022-12-18T05:31:10.251Z,96788.92
2022-12-18T05:36:47.158Z,96782.91
2022-12-18T05:42:23.529Z,96792.63
2022-12-18T05:45:12.986Z,96800.17
2022-12-18T05:48:02.491Z,96798.92
2022-12-18T05:50:52.335Z,96798.55
2022-12-18T05:56:25.048Z,96802.59
2022-12-18T06:01:54.156Z,96791.59
2022-12-18T06:04:44.619Z,96789.28
2022-12-18T06:07:33.359Z,96795.83
2022-12-18T06:10:21.901Z,96797.45
2022-12-18T06:15:58.245Z,96804.56
2022-12-18T06:21:34.448Z,96816.28
2022-12-18T06:24:23.953Z,96813.03
2022-12-18T06:29:53.847Z,96825.59
2022-12-18T06:32:42.840Z,96828.20
2022-12-18T06:35:32.061Z,96832.94
2022-12-18T06:41:03.923Z,96827.33
2022-12-18T06:43:58.110Z,96827.97
2022-12-18T06:49:28.803Z,96823.55
2022-12-18T06:54:57.653Z,96837.75
2022-12-18T06:57:46.766Z,96845.09
2022-12-18T07:06:02.250Z,96856.49
2022-12-18T07:11:37.363Z,96853.85
2022-12-18T07:14:25.471Z,96860.39
2022-12-18T07:20:08.079Z,96871.97
2022-12-18T07:25:40.691Z,96873.88
2022-12-18T07:31:16.512Z,96886.53
2022-12-18T07:39:34.366Z,96887.27
2022-12-18T07:42:34.154Z,96891.16
2022-12-18T07:48:08.243Z,96891.96
2022-12-18T07:53:44.818Z,96894.33
2022-12-18T07:59:15.014Z,96905.52
2022-12-18T08:02:05.078Z,96906.63
2022-12-18T08:07:37.112Z,96911.48
2022-12-18T08:13:17.787Z,96915.20
2022-12-18T08:18:46.386Z,96919.83
2022-12-18T08:24:24.370Z,96925.50
2022-12-18T08:30:03.984Z,96930.84
2022-12-18T08:32:54.903Z,96922.47
2022-12-18T08:38:30.373Z,96936.36
2022-12-18T08:41:19.812Z,96931.89
2022-12-18T08:44:31.263Z,96933.69
2022-12-18T08:47:19.561Z,96933.69
2022-12-18T08:52:49.554Z,96928.36
2022-12-18T08:55:38.663Z,96929.72
2022-12-18T08:58:27.412Z,96932.72
2022-12-18T09:01:18.226Z,96929.43
2022-12-18T09:06:56.124Z,96912.19
2022-12-18T09:12:30.955Z,96911.81
2022-12-18T09:23:29.263Z,96906.17
2022-12-18T09:28:59.213Z,96898.56
2022-12-18T09:31:47.911Z,96899.06
2022-12-18T09:37:18.084Z,96906.67
2022-12-18T09:42:58.257Z,96914.08
2022-12-18T09:48:44.777Z,96910.19
2022-12-18T09:54:21.460Z,96919.42
2022-12-18T09:59:59.181Z,96908.66
2022-12-18T10:08:19.686Z,96914.53
2022-12-18T10:14:21.364Z,96914.70
2022-12-18T10:32:23.445Z,96927.00
2022-12-18T10:38:08.924Z,96933.53
2022-12-18T10:43:43.927Z,96918.52
2022-12-18T10:49:30.956Z,96921.06
2022-12-18T10:55:04.316Z,96926.92
2022-12-18T11:11:09.839Z,96933.09
2022-12-18T11:17:24.927Z,96922.44
2022-12-18T11:23:09.623Z,96909.75
2022-12-18T11:28:53.030Z,96891.22
2022-12-18T11:31:41.468Z,96893.36
2022-12-18T11:37:20.781Z,96884.30
2022-12-18T11:42:59.413Z,96874.66
2022-12-18T11:48:42.713Z,96883.47
2022-12-18T11:54:17.209Z,96872.41
2022-12-18T12:02:47.653Z,96873.45
2022-12-18T12:08:38.827Z,96876.62
2022-12-18T12:14:30.549Z,96877.55
2022-12-18T12:17:24.221Z,96875.57
2022-12-18T12:23:04.330Z,96865.89
2022-12-18T12:28:48.918Z,96861.44
2022-12-18T12:34:24.765Z,96850.45
2022-12-18T12:40:40.902Z,96848.83
2022-12-18T12:48:41.379Z,96849.88
2022-12-18T12:54:18.366Z,96836.63
2022-12-18T12:59:55.458Z,96837.88
2022-12-18T13:05:41.887Z,96829.82
2022-12-18T13:08:35.962Z,96826.86
2022-12-18T13:12:00.451Z,96829.78
2022-12-18T13:18:06.155Z,96843.39
2022-12-18T13:23:48.464Z,96846.48
2022-12-18T13:29:44.503Z,96847.13
2022-12-18T13:32:32.993Z,96840.58
2022-12-18T13:38:55.732Z,96837.25
2022-12-18T13:44:40.289Z,96839.31
2022-12-18T13:50:21.831Z,96840.04
2022-12-18T13:53:18.748Z,96842.22
2022-12-18T14:01:49.879Z,96849.45
2022-12-18T14:07:23.382Z,96843.98
2022-12-18T14:13:08.183Z,96845.02
2022-12-18T14:16:01.556Z,96848.20
2022-12-18T14:21:40.664Z,96843.13
2022-12-18T14:27:27.832Z,96852.77
2022-12-18T14:33:29.965Z,96845.33
2022-12-18T14:36:21.267Z,96851.86
2022-12-18T14:39:14.603Z,96848.94
2022-12-18T14:50:21.331Z,96841.36
2022-12-18T14:58:56.805Z,96842.80
2022-12-18T15:04:33.081Z,96846.58
2022-12-18T15:10:16.943Z,96841.22
2022-12-18T15:16:20.260Z,96838.77
2022-12-18T15:19:12.104Z,96838.87
2022-12-18T15:22:06.575Z,96838.02
2022-12-18T15:30:34.081Z,96843.06
2022-12-18T15:36:27.072Z,96853.84
2022-12-18T15:42:30.117Z,96844.48
2022-12-18T15:48:15.743Z,96846.31
2022-12-18T15:54:05.878Z,96847.53
2022-12-18T15:57:29.690Z,96838.29
2022-12-18T16:03:07.691Z,96849.33
2022-12-18T16:08:48.089Z,96847.80
2022-12-18T16:14:24.718Z,96846.80
2022-12-18T16:17:15.917Z,96851.02
2022-12-18T16:23:10.702Z,96862.02
2022-12-18T16:28:48.587Z,96860.09
2022-12-18T16:34:27.736Z,96867.45
2022-12-18T16:39:59.669Z,96854.94
2022-12-18T16:45:37.642Z,96848.93
2022-12-18T16:48:27.271Z,96844.94
2022-12-18T16:51:20.341Z,96843.94
2022-12-18T16:56:58.397Z,96841.64
2022-12-18T17:02:36.540Z,96825.45
2022-12-18T17:08:14.200Z,96818.13
2022-12-18T17:13:49.109Z,96824.42
2022-12-18T17:16:37.410Z,96830.97
2022-12-18T17:22:11.986Z,96828.30
2022-12-18T17:27:48.790Z,96824.83
2022-12-18T17:33:26.974Z,96833.05
2022-12-18T17:39:05.953Z,96838.50
2022-12-18T17:44:37.840Z,96822.16
2022-12-18T17:50:09.209Z,96825.57
2022-12-18T17:52:58.548Z,96829.30
2022-12-18T17:58:45.932Z,96836.23
2022-12-18T18:04:23.913Z,96825.82
2022-12-18T18:10:27.969Z,96826.08
2022-12-18T18:16:03.905Z,96829.12
2022-12-18T18:21:42.406Z,96836.78
2022-12-18T18:27:38.694Z,96845.25
2022-12-18T18:33:12.324Z,96847.59
2022-12-18T18:38:48.497Z,96844.92
2022-12-18T18:44:26.665Z,96848.33
2022-12-18T18:50:07.052Z,96846.95
2022-12-18T18:55:43.571Z,96834.05
2022-12-18T18:58:32.142Z,96837.74
2022-12-18T19:04:05.471Z,96821.20
2022-12-18T19:09:40.386Z,96819.16
2022-12-18T19:12:47.273Z,96817.92
2022-12-18T19:15:36.084Z,96817.70
2022-12-18T19:18:24.292Z,96820.23
2022-12-18T19:23:54.514Z,96814.59
2022-12-18T19:29:28.530Z,96811.09
2022-12-18T19:35:05.288Z,96824.29
2022-12-18T19:40:45.351Z,96806.95
2022-12-18T19:43:35.775Z,96814.13
2022-12-18T19:46:24.985Z,96809.90
2022-12-18T19:52:02.511Z,96809.14
2022-12-18T19:57:39.303Z,96801.76
2022-12-18T20:03:19.889Z,96805.43
2022-12-18T20:06:09.195Z,96796.67
2022-12-18T20:11:46.419Z,96776.92
2022-12-18T20:17:17.307Z,96797.15
2022-12-18T20:23:01.957Z,96791.75
2022-12-18T20:28:42.820Z,96793.19
2022-12-18T20:36:52.237Z,96802.38
2022-12-18T20:42:28.362Z,96796.20
2022-12-18T20:48:07.957Z,96791.70
2022-12-18T20:56:43.756Z,96776.42
2022-12-18T21:02:22.825Z,96794.66
2022-12-18T21:08:04.189Z,96785.72
2022-12-18T21:13:42.827Z,96771.52
2022-12-18T21:16:31.417Z,96779.33
2022-12-18T21:24:43.084Z,96789.72
2022-12-18T21:27:31.819Z,96792.84
2022-12-18T21:30:20.905Z,96802.44
2022-12-18T21:38:45.664Z,96801.14
2022-12-18T21:41:53.024Z,96808.97
2022-12-18T21:47:35.987Z,96795.67
2022-12-18T21:53:11.370Z,96802.11
2022-12-18T21:58:57.012Z,96783.05
2022-12-18T22:01:38.841Z,96780.19
2022-12-18T22:04:27.938Z,96791.91
2022-12-18T22:07:16.910Z,96795.79
2022-12-18T22:10:06.092Z,96779.41
2022-12-18T22:15:43.295Z,96770.07
2022-12-18T22:18:31.793Z,96777.38
2022-12-18T22:24:16.025Z,96768.80
2022-12-18T22:27:04.066Z,96774.64
2022-12-18T22:32:40.541Z,96767.43
2022-12-18T22:35:29.912Z,96774.58
2022-12-18T22:40:57.528Z,96772.66
2022-12-18T22:43:47.135Z,96767.04
2022-12-18T22:46:37.955Z,96771.08
2022-12-18T22:49:26.961Z,96771.11
2022-12-18T22:52:15.418Z,96765.20
2022-12-18T22:57:54.730Z,96762.64
2022-12-18T23:03:24.021Z,96774.97
2022-12-18T23:06:12.601Z,96774.18
2022-12-18T23:11:42.814Z,96766.05
2022-12-18T23:17:14.317Z,96787.95
2022-12-18T23:20:02.500Z,96785.36
2022-12-18T23:25:41.270Z,96774.17
2022-12-18T23:34:04.817Z,96769.67
2022-12-18T23:39:34.402Z,96767.19
2022-12-18T23:45:09.383Z,96773.89
2022-12-18T23:47:57.178Z,96782.18
2022-12-18T23:53:46.942Z,96772.12
2022-12-18T23:56:36.180Z,96758.77
